Venus Seven — H9RN — position and weather

sailwx.info

Track history (hours):
 
Tides and Currents Weather Stations Pressure Air Temp Water Temp Dewpoint Dewpoint Depression Visibility Wind Speed Wind Dir Waves Ship Positions

Venus Seven

Last reported at 2014-Jul-29 15:22 UTC. Time now 2014-Jul-30 01:06 UTC.
Position N 22°46' E 120°06'.

Length 93 m; draft 4.3 m.

Type: Cargo ship. MMSI: 353405000.

Date/timePositionNaut miles runAvg speedWind from/ knotsBaromVisibWave heightAir tempDewpointWater temp
2014-Jul-29 15:22N 22°46' E 120°06'1012.9
2014-Jul-29 14:33N 22°37' E 120°11'9 9.5
2014-Jul-29 13:33N 22°33' E 120°20'0 0.0
2014-Jul-29 08:19N 22°33' E 120°20'5 6.1
2014-Jul-29 07:34N 22°36' E 120°18'0 0.1
2014-Jul-29 06:32N 22°36' E 120°17'0 0.0
2014-Jul-29 05:32N 22°36' E 120°17'0 0.0
2014-Jul-29 04:26N 22°36' E 120°17'0 0.0
2014-Jul-29 03:32N 22°36' E 120°17'0 0.0
2014-Jul-29 02:32N 22°36' E 120°17'0 0.0
2014-Jul-29 01:32N 22°36' E 120°17'0 0.0
2014-Jul-29 00:20N 22°36' E 120°17'0 0.0
2014-Jul-28 23:32N 22°36' E 120°17'0 0.0
2014-Jul-28 22:32N 22°36' E 120°17'0 0.0
2014-Jul-28 21:32N 22°36' E 120°17'0 0.0
2014-Jul-28 20:32N 22°36' E 120°17'0 0.0
2014-Jul-28 19:32N 22°36' E 120°17'0 0.0
2014-Jul-28 18:32N 22°36' E 120°17'0 0.0
2014-Jul-28 17:22N 22°36' E 120°17'0 0.0
2014-Jul-28 16:28N 22°36' E 120°17'0 0.0
2014-Jul-28 15:28N 22°36' E 120°17'0 0.0
2014-Jul-28 14:28N 22°36' E 120°17'0 0.0
2014-Jul-28 13:13N 22°36' E 120°17'0 0.0
2014-Jul-28 12:31N 22°36' E 120°17'0 0.1
2014-Jul-28 11:28N 22°36' E 120°17'0 0.1
2014-Jul-28 10:33N 22°36' E 120°17'4 4.1
2014-Jul-28 09:33N 22°37' E 120°13'1010.2
2014-Jul-28 08:33N 22°45' E 120°06'  
2014-Jul-24 11:33N 33°58' E 134°56'1312.8
2014-Jul-24 10:33N 34°11' E 134°58'2311.5
2014-Jul-24 08:32N 34°31' E 135°12'1111.0
2014-Jul-24 07:34N 34°38' E 135°22'2 1.5
2014-Jul-24 06:13N 34°38' E 135°25'0 0.0
2014-Jul-24 05:30N 34°38' E 135°25'0 0.0
2014-Jul-24 04:30N 34°38' E 135°25'0 0.0
2014-Jul-24 03:30N 34°38' E 135°25'0 0.0
2014-Jul-24 02:24N 34°38' E 135°25'0 0.0
2014-Jul-24 01:30N 34°38' E 135°25'0 0.0
2014-Jul-24 00:30N 34°38' E 135°25'0 0.0
2014-Jul-23 23:30N 34°38' E 135°25'0 0.0
2014-Jul-23 22:30N 34°38' E 135°25'0 0.0
2014-Jul-23 21:24N 34°38' E 135°25'0 0.0
2014-Jul-23 20:30N 34°38' E 135°25'0 0.0
2014-Jul-23 19:30N 34°38' E 135°25'0 0.0
2014-Jul-23 18:30N 34°38' E 135°25'0 0.0
2014-Jul-23 17:30N 34°38' E 135°25'0 0.0
2014-Jul-23 16:30N 34°38' E 135°25'0 0.0
2014-Jul-23 15:30N 34°38' E 135°25'0 0.0
2014-Jul-23 14:18N 34°38' E 135°25'0 0.0
2014-Jul-23 13:30N 34°38' E 135°25'0 0.0
2014-Jul-23 12:30N 34°38' E 135°25'0 0.0
2014-Jul-23 11:30N 34°38' E 135°25'0 0.0
2014-Jul-23 10:30N 34°38' E 135°25'0 0.0
2014-Jul-23 09:12N 34°38' E 135°25'0 0.0
2014-Jul-23 08:12N 34°38' E 135°25'0 0.0
2014-Jul-23 07:30N 34°38' E 135°25'0 0.0
2014-Jul-23 06:30N 34°38' E 135°25'0 0.0
2014-Jul-23 05:30N 34°38' E 135°25'0 0.0
2014-Jul-23 04:29N 34°38' E 135°25'0 0.0
2014-Jul-23 03:17N 34°38' E 135°25'0 0.0
2014-Jul-23 02:29N 34°38' E 135°25'0 0.0
2014-Jul-23 01:05N 34°38' E 135°25'0 0.0
2014-Jul-23 00:29N 34°38' E 135°25'0 0.0
2014-Jul-22 23:23N 34°38' E 135°25'0 0.0
2014-Jul-22 22:29N 34°38' E 135°25'2 2.2
2014-Jul-22 21:33N 34°37' E 135°23'0 0.1
2014-Jul-22 20:31N 34°37' E 135°23'0 0.0
2014-Jul-22 19:25N 34°37' E 135°23'0 0.0
2014-Jul-22 18:31N 34°37' E 135°23'0 0.0
2014-Jul-22 17:25N 34°37' E 135°23'0 0.0
2014-Jul-22 16:31N 34°37' E 135°23'0 0.0
2014-Jul-22 15:31N 34°37' E 135°23'0 0.0
2014-Jul-22 14:31N 34°37' E 135°23'8 8.2
2014-Jul-22 13:33N 34°35' E 135°13'1313.4
2014-Jul-22 12:33N 34°36' E 134°57'  
Track history (hours):
 
Tides and Currents Weather Stations Pressure Air Temp Water Temp Dewpoint Dewpoint Depression Visibility Wind Speed Wind Dir Waves Ship Positions

Venus Seven

Last reported at 2014-Jul-29 15:22 UTC. Time now 2014-Jul-30 01:06 UTC.
Position N 22°46' E 120°06'.

Length 93 m; draft 4.3 m.

Type: Cargo ship. MMSI: 353405000.

Date/timePositionNaut miles runAvg speedWind from/ knotsBaromVisibWave heightAir tempDewpointWater temp
2014-Jul-29 15:22N 22°46' E 120°06'1012.9
2014-Jul-29 14:33N 22°37' E 120°11'9 9.5
2014-Jul-29 13:33N 22°33' E 120°20'0 0.0
2014-Jul-29 08:19N 22°33' E 120°20'5 6.1
2014-Jul-29 07:34N 22°36' E 120°18'0 0.1
2014-Jul-29 06:32N 22°36' E 120°17'0 0.0
2014-Jul-29 05:32N 22°36' E 120°17'0 0.0
2014-Jul-29 04:26N 22°36' E 120°17'0 0.0
2014-Jul-29 03:32N 22°36' E 120°17'0 0.0
2014-Jul-29 02:32N 22°36' E 120°17'0 0.0
2014-Jul-29 01:32N 22°36' E 120°17'0 0.0
2014-Jul-29 00:20N 22°36' E 120°17'0 0.0
2014-Jul-28 23:32N 22°36' E 120°17'0 0.0
2014-Jul-28 22:32N 22°36' E 120°17'0 0.0
2014-Jul-28 21:32N 22°36' E 120°17'0 0.0
2014-Jul-28 20:32N 22°36' E 120°17'0 0.0
2014-Jul-28 19:32N 22°36' E 120°17'0 0.0
2014-Jul-28 18:32N 22°36' E 120°17'0 0.0
2014-Jul-28 17:22N 22°36' E 120°17'0 0.0
2014-Jul-28 16:28N 22°36' E 120°17'0 0.0
2014-Jul-28 15:28N 22°36' E 120°17'0 0.0
2014-Jul-28 14:28N 22°36' E 120°17'0 0.0
2014-Jul-28 13:13N 22°36' E 120°17'0 0.0
2014-Jul-28 12:31N 22°36' E 120°17'0 0.1
2014-Jul-28 11:28N 22°36' E 120°17'0 0.1
2014-Jul-28 10:33N 22°36' E 120°17'4 4.1
2014-Jul-28 09:33N 22°37' E 120°13'1010.2
2014-Jul-28 08:33N 22°45' E 120°06'  
2014-Jul-24 11:33N 33°58' E 134°56'1312.8
2014-Jul-24 10:33N 34°11' E 134°58'2311.5
2014-Jul-24 08:32N 34°31' E 135°12'1111.0
2014-Jul-24 07:34N 34°38' E 135°22'2 1.5
2014-Jul-24 06:13N 34°38' E 135°25'0 0.0
2014-Jul-24 05:30N 34°38' E 135°25'0 0.0
2014-Jul-24 04:30N 34°38' E 135°25'0 0.0
2014-Jul-24 03:30N 34°38' E 135°25'0 0.0
2014-Jul-24 02:24N 34°38' E 135°25'0 0.0
2014-Jul-24 01:30N 34°38' E 135°25'0 0.0
2014-Jul-24 00:30N 34°38' E 135°25'0 0.0
2014-Jul-23 23:30N 34°38' E 135°25'0 0.0
2014-Jul-23 22:30N 34°38' E 135°25'0 0.0
2014-Jul-23 21:24N 34°38' E 135°25'0 0.0
2014-Jul-23 20:30N 34°38' E 135°25'0 0.0
2014-Jul-23 19:30N 34°38' E 135°25'0 0.0
2014-Jul-23 18:30N 34°38' E 135°25'0 0.0
2014-Jul-23 17:30N 34°38' E 135°25'0 0.0
2014-Jul-23 16:30N 34°38' E 135°25'0 0.0
2014-Jul-23 15:30N 34°38' E 135°25'0 0.0
2014-Jul-23 14:18N 34°38' E 135°25'0 0.0
2014-Jul-23 13:30N 34°38' E 135°25'0 0.0
2014-Jul-23 12:30N 34°38' E 135°25'0 0.0
2014-Jul-23 11:30N 34°38' E 135°25'0 0.0
2014-Jul-23 10:30N 34°38' E 135°25'0 0.0
2014-Jul-23 09:12N 34°38' E 135°25'0 0.0
2014-Jul-23 08:12N 34°38' E 135°25'0 0.0
2014-Jul-23 07:30N 34°38' E 135°25'0 0.0
2014-Jul-23 06:30N 34°38' E 135°25'0 0.0
2014-Jul-23 05:30N 34°38' E 135°25'0 0.0
2014-Jul-23 04:29N 34°38' E 135°25'0 0.0
2014-Jul-23 03:17N 34°38' E 135°25'0 0.0
2014-Jul-23 02:29N 34°38' E 135°25'0 0.0
2014-Jul-23 01:05N 34°38' E 135°25'0 0.0
2014-Jul-23 00:29N 34°38' E 135°25'0 0.0
2014-Jul-22 23:23N 34°38' E 135°25'0 0.0
2014-Jul-22 22:29N 34°38' E 135°25'2 2.2
2014-Jul-22 21:33N 34°37' E 135°23'0 0.1
2014-Jul-22 20:31N 34°37' E 135°23'0 0.0
2014-Jul-22 19:25N 34°37' E 135°23'0 0.0
2014-Jul-22 18:31N 34°37' E 135°23'0 0.0
2014-Jul-22 17:25N 34°37' E 135°23'0 0.0
2014-Jul-22 16:31N 34°37' E 135°23'0 0.0
2014-Jul-22 15:31N 34°37' E 135°23'0 0.0
2014-Jul-22 14:31N 34°37' E 135°23'8 8.2
2014-Jul-22 13:33N 34°35' E 135°13'1313.4
2014-Jul-22 12:33N 34°36' E 134°57'  

Dump ship's entire track history